createdAt,value
2023-04-07T00:00:41.764Z,0.66
2023-04-07T00:05:43.600Z,0.68
2023-04-07T00:10:45.589Z,0.69
2023-04-07T00:15:47.297Z,0.70
2023-04-07T00:20:49.004Z,0.70
2023-04-07T00:25:50.698Z,0.75
2023-04-07T00:30:52.371Z,0.76
2023-04-07T00:35:54.579Z,0.74
2023-04-07T00:41:00.276Z,0.73
2023-04-07T00:46:02.112Z,0.76
2023-04-07T00:51:05.042Z,0.72
2023-04-07T00:56:06.912Z,0.72
2023-04-07T01:01:15.474Z,0.72
2023-04-07T01:06:21.487Z,0.71
2023-04-07T01:11:28.026Z,0.70
2023-04-07T01:16:34.859Z,0.71
2023-04-07T01:21:38.301Z,0.73
2023-04-07T01:26:40.754Z,0.73
2023-04-07T01:31:43.377Z,0.73
2023-04-07T01:36:46.920Z,0.77
2023-04-07T01:41:51.434Z,0.76
2023-04-07T01:46:55.612Z,0.70
2023-04-07T01:51:58.229Z,0.69
2023-04-07T01:57:00.006Z,0.66
2023-04-07T02:02:01.953Z,0.70
2023-04-07T02:07:11.236Z,0.78
2023-04-07T02:12:17.687Z,0.87
2023-04-07T02:17:30.340Z,0.89
2023-04-07T02:22:33.439Z,0.85
2023-04-07T02:27:35.309Z,0.78
2023-04-07T02:32:36.994Z,0.73
2023-04-07T02:37:39.436Z,0.72
2023-04-07T02:42:41.306Z,0.72
2023-04-07T02:47:43.024Z,0.77
2023-04-07T02:52:44.744Z,0.78
2023-04-07T02:57:48.737Z,0.78
2023-04-07T03:03:00.417Z,0.79
2023-04-07T03:08:04.678Z,0.81
2023-04-07T03:13:08.356Z,0.82
2023-04-07T03:18:11.516Z,0.78
2023-04-07T03:23:15.165Z,0.80
2023-04-07T03:28:17.023Z,0.78
2023-04-07T03:33:19.028Z,0.74
2023-04-07T03:38:21.675Z,0.71
2023-04-07T03:43:26.717Z,0.73
2023-04-07T03:48:29.286Z,0.77
2023-04-07T03:53:57.136Z,0.80
2023-04-07T03:59:12.246Z,0.83
2023-04-07T04:07:11.184Z,0.75
2023-04-07T04:12:17.593Z,0.63
2023-04-07T04:17:35.066Z,0.60
2023-04-07T04:22:38.870Z,0.58
2023-04-07T04:27:41.788Z,0.64
2023-04-07T04:32:50.505Z,0.82
2023-04-07T04:37:54.922Z,0.89
2023-04-07T04:42:56.673Z,1.00
2023-04-07T04:47:59.636Z,1.01
2023-04-07T04:53:01.387Z,0.99
2023-04-07T04:58:03.182Z,0.91
2023-04-07T05:03:13.149Z,0.87
2023-04-07T05:08:17.266Z,0.92
2023-04-07T05:13:19.250Z,0.95
2023-04-07T05:18:21.458Z,0.99
2023-04-07T05:23:25.039Z,1.13
2023-04-07T05:28:27.232Z,1.17
2023-04-07T05:33:30.920Z,1.18
2023-04-07T05:38:32.735Z,1.17
2023-04-07T05:43:38.588Z,1.16
2023-04-07T05:48:41.027Z,1.11
2023-04-07T05:53:42.816Z,1.12
2023-04-07T05:58:46.263Z,1.15
2023-04-07T06:03:48.858Z,1.15
2023-04-07T06:08:56.086Z,1.16
2023-04-07T06:13:58.887Z,1.13
2023-04-07T06:19:01.223Z,1.15
2023-04-07T06:24:04.153Z,1.19
2023-04-07T06:29:06.088Z,1.19
2023-04-07T06:34:07.808Z,1.23
2023-04-07T06:39:09.583Z,1.27
2023-04-07T06:44:11.335Z,1.26
2023-04-07T06:49:13.284Z,1.29
2023-04-07T06:54:15.463Z,1.37
2023-04-07T06:59:17.249Z,1.37
2023-04-07T07:04:19.162Z,1.40
2023-04-07T07:09:22.059Z,1.41
2023-04-07T07:14:23.728Z,1.47
2023-04-07T07:19:25.572Z,1.62
2023-04-07T07:24:29.241Z,1.82
2023-04-07T07:29:31.293Z,1.89
2023-04-07T07:34:33.336Z,1.89
2023-04-07T07:39:35.086Z,1.91
2023-04-07T07:44:36.770Z,1.95
2023-04-07T07:49:38.611Z,2.00
2023-04-07T07:54:40.805Z,1.99
2023-04-07T07:59:42.531Z,1.97
2023-04-07T08:04:44.749Z,1.92
2023-04-07T08:09:46.441Z,1.97
2023-04-07T08:14:49.478Z,2.03
2023-04-07T08:19:51.169Z,2.08
2023-04-07T08:24:52.886Z,2.05
2023-04-07T08:30:01.674Z,2.14
2023-04-07T08:35:03.819Z,2.23
2023-04-07T08:40:06.757Z,2.20
2023-04-07T08:45:09.899Z,2.22
2023-04-07T08:50:12.415Z,2.14
2023-04-07T08:55:14.668Z,2.23
2023-04-07T09:00:16.453Z,2.41
2023-04-07T09:05:18.146Z,2.55
2023-04-07T09:10:19.837Z,2.55
2023-04-07T09:15:22.084Z,2.49
2023-04-07T09:20:23.825Z,2.42
2023-04-07T09:25:29.950Z,2.37
2023-04-07T09:30:33.808Z,2.42
2023-04-07T09:35:54.504Z,2.37
2023-04-07T09:41:25.744Z,2.33
2023-04-07T09:46:29.415Z,2.38
2023-04-07T09:51:31.431Z,2.45
2023-04-07T09:56:33.594Z,2.56
2023-04-07T10:01:36.239Z,2.72
2023-04-07T10:06:38.047Z,2.78
2023-04-07T10:11:41.007Z,2.81
2023-04-07T10:16:44.499Z,2.71
2023-04-07T10:21:51.799Z,2.73
2023-04-07T10:27:01.632Z,2.66
2023-04-07T10:32:03.821Z,2.68
2023-04-07T10:37:13.604Z,2.69
2023-04-07T10:42:41.029Z,2.75
2023-04-07T10:47:58.121Z,2.87
2023-04-07T10:53:07.238Z,2.82
2023-04-07T10:58:39.832Z,2.88
2023-04-07T11:03:52.478Z,2.95
2023-04-07T11:08:54.878Z,2.96
2023-04-07T11:13:56.593Z,2.94
2023-04-07T11:18:58.431Z,2.90
2023-04-07T11:24:00.159Z,2.89
2023-04-07T11:29:01.986Z,2.86
2023-04-07T11:34:05.517Z,2.84
2023-04-07T11:39:20.472Z,2.90
2023-04-07T11:44:22.229Z,2.96
2023-04-07T11:49:25.910Z,3.06
2023-04-07T11:54:27.980Z,3.08
2023-04-07T11:59:29.715Z,3.10
2023-04-07T12:04:31.454Z,3.10
2023-04-07T12:09:36.304Z,3.14
2023-04-07T12:14:38.263Z,3.04
2023-04-07T12:19:40.046Z,2.99
2023-04-07T12:24:42.091Z,2.98
2023-04-07T12:29:43.974Z,3.02
2023-04-07T12:34:45.661Z,3.05
2023-04-07T12:39:47.246Z,3.06
2023-04-07T12:44:48.920Z,3.06
2023-04-07T12:49:51.223Z,3.10
2023-04-07T12:54:53.533Z,3.06
2023-04-07T12:59:55.532Z,3.05
2023-04-07T13:04:57.195Z,3.10
2023-04-07T13:09:59.246Z,3.00
2023-04-07T13:15:01.168Z,2.97
2023-04-07T13:20:04.471Z,2.98
2023-04-07T13:25:06.621Z,3.02
2023-04-07T13:30:11.175Z,3.11
2023-04-07T13:35:13.121Z,3.14
2023-04-07T13:40:14.841Z,3.12
2023-04-07T13:45:16.427Z,3.13
2023-04-07T13:50:18.134Z,3.20
2023-04-07T13:55:20.880Z,3.29
2023-04-07T14:00:22.611Z,3.30
2023-04-07T14:05:24.713Z,3.32
2023-04-07T14:10:27.359Z,3.39
2023-04-07T14:15:29.074Z,3.53
2023-04-07T14:20:30.727Z,3.54
2023-04-07T14:25:32.308Z,3.61
2023-04-07T14:30:38.682Z,3.71
2023-04-07T14:35:40.734Z,3.72
2023-04-07T14:40:42.421Z,3.67
2023-04-07T14:45:45.464Z,3.63
2023-04-07T14:50:50.205Z,3.64
2023-04-07T14:55:58.085Z,3.61
2023-04-07T15:00:59.724Z,3.59
2023-04-07T15:06:01.324Z,3.54
2023-04-07T15:11:07.478Z,3.53
2023-04-07T15:16:11.648Z,3.56
2023-04-07T15:21:14.553Z,3.58
2023-04-07T15:26:16.297Z,3.64
2023-04-07T15:31:18.406Z,3.65
2023-04-07T15:36:20.309Z,3.67
2023-04-07T15:41:23.293Z,3.65
2023-04-07T15:46:25.424Z,3.58
2023-04-07T15:51:27.760Z,3.62
2023-04-07T15:56:29.396Z,3.70
2023-04-07T16:06:32.650Z,3.69
2023-04-07T16:11:34.296Z,3.68
2023-04-07T16:16:37.100Z,3.69
2023-04-07T16:21:39.473Z,3.70
2023-04-07T16:26:41.176Z,3.63
2023-04-07T16:31:44.300Z,3.66
2023-04-07T16:36:47.433Z,3.67
2023-04-07T16:41:49.214Z,3.66
2023-04-07T16:46:51.027Z,3.62
2023-04-07T16:51:52.775Z,3.59
2023-04-07T16:56:54.416Z,3.63
2023-04-07T17:01:56.180Z,3.68
2023-04-07T17:06:57.870Z,3.78
2023-04-07T17:11:59.708Z,3.82
2023-04-07T17:17:02.265Z,3.89
2023-04-07T17:22:04.090Z,3.87
2023-04-07T17:27:05.818Z,3.85
2023-04-07T17:32:09.128Z,3.91
2023-04-07T17:37:10.967Z,3.96
2023-04-07T17:42:12.652Z,3.93
2023-04-07T17:47:14.355Z,3.90
2023-04-07T17:52:16.527Z,3.95
2023-04-07T17:57:19.022Z,3.95
2023-04-07T18:02:21.380Z,3.99
2023-04-07T18:07:23.882Z,4.05
2023-04-07T18:12:25.668Z,4.03
2023-04-07T18:17:27.435Z,4.00
2023-04-07T18:22:29.579Z,3.99
2023-04-07T18:27:31.235Z,3.95
2023-04-07T18:32:33.015Z,3.94
2023-04-07T18:37:36.641Z,3.97
2023-04-07T18:42:38.412Z,3.91
2023-04-07T18:47:40.247Z,3.90
2023-04-07T18:52:42.319Z,3.94
2023-04-07T18:57:44.365Z,4.00
2023-04-07T19:02:46.353Z,4.05
2023-04-07T19:07:49.499Z,4.06
2023-04-07T19:12:51.311Z,3.96
2023-04-07T19:17:52.981Z,3.94
2023-04-07T19:22:54.682Z,3.95
2023-04-07T19:27:57.224Z,4.01
2023-04-07T19:32:59.303Z,4.09
2023-04-07T19:38:02.165Z,4.13
2023-04-07T19:43:03.852Z,4.11
2023-04-07T19:48:06.436Z,4.10
2023-04-07T19:53:08.428Z,4.11
2023-04-07T19:58:10.405Z,4.05
2023-04-07T20:03:12.414Z,4.06
2023-04-07T20:08:14.407Z,4.08
2023-04-07T20:13:16.201Z,4.18
2023-04-07T20:18:18.586Z,4.25
2023-04-07T20:23:22.214Z,4.23
2023-04-07T20:28:24.446Z,4.14
2023-04-07T20:33:26.132Z,4.06
2023-04-07T20:38:27.973Z,4.05
2023-04-07T20:43:29.678Z,4.05
2023-04-07T20:48:32.576Z,4.02
2023-04-07T20:53:34.443Z,4.04
2023-04-07T20:58:36.744Z,4.06
2023-04-07T21:03:38.650Z,4.15
2023-04-07T21:08:41.994Z,4.15
2023-04-07T21:13:48.054Z,4.10
2023-04-07T21:18:51.115Z,4.14
2023-04-07T21:23:52.963Z,4.27
2023-04-07T21:28:54.656Z,4.37
2023-04-07T21:33:56.284Z,4.51
2023-04-07T21:38:58.214Z,4.64
2023-04-07T21:44:01.883Z,4.64
2023-04-07T21:49:10.408Z,4.73
2023-04-07T21:54:17.205Z,4.82
2023-04-07T21:59:18.949Z,4.86
2023-04-07T22:04:21.897Z,4.89
2023-04-07T22:09:24.233Z,4.91
2023-04-07T22:14:26.613Z,4.97
2023-04-07T22:19:28.372Z,5.01
2023-04-07T22:24:30.080Z,5.09
2023-04-07T22:29:31.781Z,5.15
2023-04-07T22:34:33.473Z,5.23
2023-04-07T22:39:35.717Z,5.31
2023-04-07T22:44:37.437Z,5.37
2023-04-07T22:49:39.434Z,5.41
2023-04-07T22:54:41.170Z,5.49
2023-04-07T22:59:42.934Z,5.49
2023-04-07T23:04:44.656Z,5.44
2023-04-07T23:09:47.116Z,5.30
2023-04-07T23:14:54.379Z,5.19
2023-04-07T23:19:56.240Z,5.09
2023-04-07T23:24:58.321Z,5.03
2023-04-07T23:30:00.069Z,4.89
2023-04-07T23:35:01.860Z,4.74
2023-04-07T23:40:06.507Z,4.63
2023-04-07T23:45:09.748Z,4.56
2023-04-07T23:50:13.350Z,4.46
2023-04-07T23:55:15.102Z,4.42
